sensor_id;sensor_type;location;lat;lon;timestamp;temperature;humidity
8792;DHT22;4432;50.890;4.744;2022-09-27T00:02:00;10.20;99.90
8792;DHT22;4432;50.890;4.744;2022-09-27T00:04:26;10.20;99.90
8792;DHT22;4432;50.890;4.744;2022-09-27T00:06:52;10.20;99.90
8792;DHT22;4432;50.890;4.744;2022-09-27T00:09:18;10.10;99.90
8792;DHT22;4432;50.890;4.744;2022-09-27T00:11:44;10.10;99.90
8792;DHT22;4432;50.890;4.744;2022-09-27T00:14:13;10.10;99.90
8792;DHT22;4432;50.890;4.744;2022-09-27T00:16:41;10.10;99.90
8792;DHT22;4432;50.890;4.744;2022-09-27T00:19:14;10.10;99.90
8792;DHT22;4432;50.890;4.744;2022-09-27T00:21:42;10.10;99.90
8792;DHT22;4432;50.890;4.744;2022-09-27T00:24:12;10.10;99.90
8792;DHT22;4432;50.890;4.744;2022-09-27T00:26:39;10.00;99.90
8792;DHT22;4432;50.890;4.744;2022-09-27T00:29:05;10.00;99.90
8792;DHT22;4432;50.890;4.744;2022-09-27T00:31:31;10.00;99.90
8792;DHT22;4432;50.890;4.744;2022-09-27T00:33:59;10.10;99.90
8792;DHT22;4432;50.890;4.744;2022-09-27T00:36:26;10.10;99.90
8792;DHT22;4432;50.890;4.744;2022-09-27T00:38:53;10.00;99.90
8792;DHT22;4432;50.890;4.744;2022-09-27T00:41:22;10.10;99.90
8792;DHT22;4432;50.890;4.744;2022-09-27T00:43:54;10.00;99.90
8792;DHT22;4432;50.890;4.744;2022-09-27T00:46:30;10.00;99.90
8792;DHT22;4432;50.890;4.744;2022-09-27T00:51:43;10.10;99.90
8792;DHT22;4432;50.890;4.744;2022-09-27T00:54:12;10.10;99.90
8792;DHT22;4432;50.890;4.744;2022-09-27T00:56:39;10.10;99.90
8792;DHT22;4432;50.890;4.744;2022-09-27T00:59:13;10.20;99.90
8792;DHT22;4432;50.890;4.744;2022-09-27T01:01:40;10.20;99.90
8792;DHT22;4432;50.890;4.744;2022-09-27T01:04:07;10.20;99.90
8792;DHT22;4432;50.890;4.744;2022-09-27T01:06:33;10.20;99.90
8792;DHT22;4432;50.890;4.744;2022-09-27T01:09:00;10.20;99.90
8792;DHT22;4432;50.890;4.744;2022-09-27T01:11:50;10.10;99.90
8792;DHT22;4432;50.890;4.744;2022-09-27T01:14:48;10.10;99.90
8792;DHT22;4432;50.890;4.744;2022-09-27T01:26:24;10.00;99.90
8792;DHT22;4432;50.890;4.744;2022-09-27T01:32:27;9.90;99.90
8792;DHT22;4432;50.890;4.744;2022-09-27T01:35:02;10.00;99.90
8792;DHT22;4432;50.890;4.744;2022-09-27T01:37:40;9.90;99.90
8792;DHT22;4432;50.890;4.744;2022-09-27T01:40:33;9.90;99.90
8792;DHT22;4432;50.890;4.744;2022-09-27T01:43:24;9.90;99.90
8792;DHT22;4432;50.890;4.744;2022-09-27T01:45:54;9.90;99.90
8792;DHT22;4432;50.890;4.744;2022-09-27T01:48:22;9.90;99.90
8792;DHT22;4432;50.890;4.744;2022-09-27T01:53:45;9.80;99.90
8792;DHT22;4432;50.890;4.744;2022-09-27T01:56:42;9.80;99.90
8792;DHT22;4432;50.890;4.744;2022-09-27T01:59:15;9.80;99.90
8792;DHT22;4432;50.890;4.744;2022-09-27T02:01:45;9.80;99.90
8792;DHT22;4432;50.890;4.744;2022-09-27T02:04:16;9.80;99.90
8792;DHT22;4432;50.890;4.744;2022-09-27T02:06:48;9.70;99.90
8792;DHT22;4432;50.890;4.744;2022-09-27T02:09:26;9.70;99.90
8792;DHT22;4432;50.890;4.744;2022-09-27T02:11:57;9.70;99.90
8792;DHT22;4432;50.890;4.744;2022-09-27T02:17:11;9.70;99.90
8792;DHT22;4432;50.890;4.744;2022-09-27T02:19:52;9.60;99.90
8792;DHT22;4432;50.890;4.744;2022-09-27T02:22:31;9.60;99.90
8792;DHT22;4432;50.890;4.744;2022-09-27T02:25:15;9.60;99.90
8792;DHT22;4432;50.890;4.744;2022-09-27T02:28:00;9.60;99.90
8792;DHT22;4432;50.890;4.744;2022-09-27T02:30:28;9.60;99.90
8792;DHT22;4432;50.890;4.744;2022-09-27T02:32:53;9.60;99.90
8792;DHT22;4432;50.890;4.744;2022-09-27T02:35:26;9.60;99.90
8792;DHT22;4432;50.890;4.744;2022-09-27T02:37:55;9.60;99.90
8792;DHT22;4432;50.890;4.744;2022-09-27T02:40:21;9.60;99.90
8792;DHT22;4432;50.890;4.744;2022-09-27T02:42:47;9.60;99.90
8792;DHT22;4432;50.890;4.744;2022-09-27T02:45:15;9.60;99.90
8792;DHT22;4432;50.890;4.744;2022-09-27T02:48:03;9.60;99.90
8792;DHT22;4432;50.890;4.744;2022-09-27T02:56:26;9.70;99.90
8792;DHT22;4432;50.890;4.744;2022-09-27T03:04:33;9.60;99.90
8792;DHT22;4432;50.890;4.744;2022-09-27T03:07:00;9.60;99.90
8792;DHT22;4432;50.890;4.744;2022-09-27T03:09:42;9.50;99.90
8792;DHT22;4432;50.890;4.744;2022-09-27T03:12:09;9.50;99.90
8792;DHT22;4432;50.890;4.744;2022-09-27T03:14:35;9.50;99.90
8792;DHT22;4432;50.890;4.744;2022-09-27T03:17:00;9.50;99.90
8792;DHT22;4432;50.890;4.744;2022-09-27T03:19:35;9.50;99.90
8792;DHT22;4432;50.890;4.744;2022-09-27T03:22:01;9.50;99.90
8792;DHT22;4432;50.890;4.744;2022-09-27T03:24:27;9.50;99.90
8792;DHT22;4432;50.890;4.744;2022-09-27T03:26:52;9.50;99.90
8792;DHT22;4432;50.890;4.744;2022-09-27T03:29:18;9.50;99.90
8792;DHT22;4432;50.890;4.744;2022-09-27T03:31:44;9.50;99.90
8792;DHT22;4432;50.890;4.744;2022-09-27T03:34:09;9.50;99.90
8792;DHT22;4432;50.890;4.744;2022-09-27T03:36:35;9.50;99.90
8792;DHT22;4432;50.890;4.744;2022-09-27T03:39:01;9.50;99.90
8792;DHT22;4432;50.890;4.744;2022-09-27T03:41:27;9.50;99.90
8792;DHT22;4432;50.890;4.744;2022-09-27T03:43:52;9.50;99.90
8792;DHT22;4432;50.890;4.744;2022-09-27T03:46:21;9.40;99.90
8792;DHT22;4432;50.890;4.744;2022-09-27T03:48:46;9.40;99.90
8792;DHT22;4432;50.890;4.744;2022-09-27T03:51:12;9.40;99.90
8792;DHT22;4432;50.890;4.744;2022-09-27T03:53:38;9.40;99.90
8792;DHT22;4432;50.890;4.744;2022-09-27T03:56:04;9.40;99.90
8792;DHT22;4432;50.890;4.744;2022-09-27T03:58:29;9.40;99.90
8792;DHT22;4432;50.890;4.744;2022-09-27T04:00:55;9.40;99.90
8792;DHT22;4432;50.890;4.744;2022-09-27T04:03:21;9.40;99.90
8792;DHT22;4432;50.890;4.744;2022-09-27T04:05:46;9.40;99.90
8792;DHT22;4432;50.890;4.744;2022-09-27T04:08:12;9.40;99.90
8792;DHT22;4432;50.890;4.744;2022-09-27T04:10:38;9.40;99.90
8792;DHT22;4432;50.890;4.744;2022-09-27T04:13:04;9.40;99.90
8792;DHT22;4432;50.890;4.744;2022-09-27T04:15:30;9.40;99.90
8792;DHT22;4432;50.890;4.744;2022-09-27T04:17:55;9.40;99.90
8792;DHT22;4432;50.890;4.744;2022-09-27T04:20:21;9.40;99.90
8792;DHT22;4432;50.890;4.744;2022-09-27T04:22:47;9.40;99.90
8792;DHT22;4432;50.890;4.744;2022-09-27T04:25:13;9.40;99.90
8792;DHT22;4432;50.890;4.744;2022-09-27T04:27:43;9.40;99.90
8792;DHT22;4432;50.890;4.744;2022-09-27T04:30:11;9.40;99.90
8792;DHT22;4432;50.890;4.744;2022-09-27T04:32:41;9.40;99.90
8792;DHT22;4432;50.890;4.744;2022-09-27T04:35:08;9.30;99.90
8792;DHT22;4432;50.890;4.744;2022-09-27T04:37:53;9.20;99.90
8792;DHT22;4432;50.890;4.744;2022-09-27T04:40:19;9.10;99.90
8792;DHT22;4432;50.890;4.744;2022-09-27T04:42:47;9.10;99.90
8792;DHT22;4432;50.890;4.744;2022-09-27T04:45:13;9.10;99.90
8792;DHT22;4432;50.890;4.744;2022-09-27T04:47:46;9.10;99.90
8792;DHT22;4432;50.890;4.744;2022-09-27T04:50:13;9.10;99.90
8792;DHT22;4432;50.890;4.744;2022-09-27T04:52:39;9.20;99.90
8792;DHT22;4432;50.890;4.744;2022-09-27T04:55:06;9.20;99.90
8792;DHT22;4432;50.890;4.744;2022-09-27T04:57:33;9.20;99.90
8792;DHT22;4432;50.890;4.744;2022-09-27T04:59:58;9.10;99.90
8792;DHT22;4432;50.890;4.744;2022-09-27T05:02:28;9.10;99.90
8792;DHT22;4432;50.890;4.744;2022-09-27T05:04:55;9.10;99.90
8792;DHT22;4432;50.890;4.744;2022-09-27T05:07:22;9.00;99.90
8792;DHT22;4432;50.890;4.744;2022-09-27T05:09:48;9.00;99.90
8792;DHT22;4432;50.890;4.744;2022-09-27T05:12:13;9.00;99.90
8792;DHT22;4432;50.890;4.744;2022-09-27T05:14:39;9.00;99.90
8792;DHT22;4432;50.890;4.744;2022-09-27T05:17:05;9.10;99.90
8792;DHT22;4432;50.890;4.744;2022-09-27T05:19:34;9.20;99.90
8792;DHT22;4432;50.890;4.744;2022-09-27T05:22:00;9.20;99.90
8792;DHT22;4432;50.890;4.744;2022-09-27T05:24:26;9.20;99.90
8792;DHT22;4432;50.890;4.744;2022-09-27T05:26:58;9.30;99.90
8792;DHT22;4432;50.890;4.744;2022-09-27T05:29:24;9.30;99.90
8792;DHT22;4432;50.890;4.744;2022-09-27T05:31:49;9.30;99.90
8792;DHT22;4432;50.890;4.744;2022-09-27T05:34:15;9.20;99.90
8792;DHT22;4432;50.890;4.744;2022-09-27T05:36:46;9.20;99.90
8792;DHT22;4432;50.890;4.744;2022-09-27T05:39:12;9.10;99.90
8792;DHT22;4432;50.890;4.744;2022-09-27T05:41:38;9.10;99.90
8792;DHT22;4432;50.890;4.744;2022-09-27T05:44:05;9.10;99.90
8792;DHT22;4432;50.890;4.744;2022-09-27T05:46:30;9.10;99.90
8792;DHT22;4432;50.890;4.744;2022-09-27T05:48:56;9.10;99.90
8792;DHT22;4432;50.890;4.744;2022-09-27T05:51:22;9.20;99.90
8792;DHT22;4432;50.890;4.744;2022-09-27T05:53:48;9.20;99.90
8792;DHT22;4432;50.890;4.744;2022-09-27T05:56:13;9.30;99.90
8792;DHT22;4432;50.890;4.744;2022-09-27T05:58:39;9.30;99.90
8792;DHT22;4432;50.890;4.744;2022-09-27T06:01:06;9.40;99.90
8792;DHT22;4432;50.890;4.744;2022-09-27T06:03:33;9.40;99.90
8792;DHT22;4432;50.890;4.744;2022-09-27T06:06:03;9.40;99.90
8792;DHT22;4432;50.890;4.744;2022-09-27T06:08:33;9.40;99.90
8792;DHT22;4432;50.890;4.744;2022-09-27T06:11:08;9.40;99.90
8792;DHT22;4432;50.890;4.744;2022-09-27T06:13:35;9.50;99.90
8792;DHT22;4432;50.890;4.744;2022-09-27T06:16:01;9.50;99.90
8792;DHT22;4432;50.890;4.744;2022-09-27T06:18:27;9.60;99.90
8792;DHT22;4432;50.890;4.744;2022-09-27T06:20:53;9.60;99.90
8792;DHT22;4432;50.890;4.744;2022-09-27T06:23:21;9.60;99.90
8792;DHT22;4432;50.890;4.744;2022-09-27T06:25:48;9.60;99.90
8792;DHT22;4432;50.890;4.744;2022-09-27T06:28:15;9.60;99.90
8792;DHT22;4432;50.890;4.744;2022-09-27T06:30:43;9.50;99.90
8792;DHT22;4432;50.890;4.744;2022-09-27T06:33:12;9.60;99.90
8792;DHT22;4432;50.890;4.744;2022-09-27T06:35:40;9.60;99.90
8792;DHT22;4432;50.890;4.744;2022-09-27T06:38:09;9.70;99.90
8792;DHT22;4432;50.890;4.744;2022-09-27T06:40:35;9.70;99.90
8792;DHT22;4432;50.890;4.744;2022-09-27T06:43:06;9.90;99.90
8792;DHT22;4432;50.890;4.744;2022-09-27T06:45:36;9.90;99.90
8792;DHT22;4432;50.890;4.744;2022-09-27T06:48:03;9.90;99.90
8792;DHT22;4432;50.890;4.744;2022-09-27T06:50:36;9.80;99.90
8792;DHT22;4432;50.890;4.744;2022-09-27T06:53:07;9.80;99.90
8792;DHT22;4432;50.890;4.744;2022-09-27T06:55:35;10.00;99.90
8792;DHT22;4432;50.890;4.744;2022-09-27T06:58:01;10.10;99.90
8792;DHT22;4432;50.890;4.744;2022-09-27T07:00:49;10.00;99.90
8792;DHT22;4432;50.890;4.744;2022-09-27T07:03:15;10.10;99.90
8792;DHT22;4432;50.890;4.744;2022-09-27T07:05:41;10.10;99.90
8792;DHT22;4432;50.890;4.744;2022-09-27T07:08:09;10.10;99.90
8792;DHT22;4432;50.890;4.744;2022-09-27T07:10:37;10.10;99.90
8792;DHT22;4432;50.890;4.744;2022-09-27T07:13:08;10.10;99.90
8792;DHT22;4432;50.890;4.744;2022-09-27T07:15:36;10.00;99.90
8792;DHT22;4432;50.890;4.744;2022-09-27T07:18:03;10.20;99.90
8792;DHT22;4432;50.890;4.744;2022-09-27T07:20:29;10.60;99.90
8792;DHT22;4432;50.890;4.744;2022-09-27T07:22:56;10.80;99.90
8792;DHT22;4432;50.890;4.744;2022-09-27T07:25:22;10.80;99.90
8792;DHT22;4432;50.890;4.744;2022-09-27T07:27:48;10.70;99.90
8792;DHT22;4432;50.890;4.744;2022-09-27T07:30:15;10.60;99.90
8792;DHT22;4432;50.890;4.744;2022-09-27T07:32:42;10.50;99.90
8792;DHT22;4432;50.890;4.744;2022-09-27T07:35:08;10.60;99.90
8792;DHT22;4432;50.890;4.744;2022-09-27T07:37:36;10.70;99.90
8792;DHT22;4432;50.890;4.744;2022-09-27T07:40:04;10.80;99.90
8792;DHT22;4432;50.890;4.744;2022-09-27T07:42:35;11.00;99.90
8792;DHT22;4432;50.890;4.744;2022-09-27T07:45:06;11.10;99.90
8792;DHT22;4432;50.890;4.744;2022-09-27T07:47:32;11.00;99.90
8792;DHT22;4432;50.890;4.744;2022-09-27T07:49:58;11.00;99.90
8792;DHT22;4432;50.890;4.744;2022-09-27T07:52:24;11.00;99.90
8792;DHT22;4432;50.890;4.744;2022-09-27T07:54:49;10.90;99.90
8792;DHT22;4432;50.890;4.744;2022-09-27T07:57:16;10.90;99.90
8792;DHT22;4432;50.890;4.744;2022-09-27T07:59:42;11.00;99.90
8792;DHT22;4432;50.890;4.744;2022-09-27T08:02:15;11.30;99.90
8792;DHT22;4432;50.890;4.744;2022-09-27T08:04:41;11.60;99.90
8792;DHT22;4432;50.890;4.744;2022-09-27T08:07:13;12.00;99.90
8792;DHT22;4432;50.890;4.744;2022-09-27T08:09:39;12.20;99.90
8792;DHT22;4432;50.890;4.744;2022-09-27T08:12:05;12.10;99.90
8792;DHT22;4432;50.890;4.744;2022-09-27T08:14:31;12.30;99.90
8792;DHT22;4432;50.890;4.744;2022-09-27T08:16:57;12.20;99.90
8792;DHT22;4432;50.890;4.744;2022-09-27T08:19:23;12.00;99.90
8792;DHT22;4432;50.890;4.744;2022-09-27T08:21:51;12.00;99.90
8792;DHT22;4432;50.890;4.744;2022-09-27T08:24:20;11.90;99.90
8792;DHT22;4432;50.890;4.744;2022-09-27T08:26:45;11.70;99.90
8792;DHT22;4432;50.890;4.744;2022-09-27T08:29:11;11.50;99.90
8792;DHT22;4432;50.890;4.744;2022-09-27T08:31:37;11.40;99.90
8792;DHT22;4432;50.890;4.744;2022-09-27T08:34:03;11.40;99.90
8792;DHT22;4432;50.890;4.744;2022-09-27T08:36:29;11.40;99.90
8792;DHT22;4432;50.890;4.744;2022-09-27T08:38:56;11.40;99.90
8792;DHT22;4432;50.890;4.744;2022-09-27T08:41:55;11.50;99.90
8792;DHT22;4432;50.890;4.744;2022-09-27T08:44:50;11.60;99.90
8792;DHT22;4432;50.890;4.744;2022-09-27T08:47:30;11.80;99.90
8792;DHT22;4432;50.890;4.744;2022-09-27T08:52:50;11.80;99.90
8792;DHT22;4432;50.890;4.744;2022-09-27T08:55:39;11.60;99.90
8792;DHT22;4432;50.890;4.744;2022-09-27T08:58:33;11.50;99.90
8792;DHT22;4432;50.890;4.744;2022-09-27T09:01:02;11.50;99.90
8792;DHT22;4432;50.890;4.744;2022-09-27T09:03:37;11.60;99.90
8792;DHT22;4432;50.890;4.744;2022-09-27T09:06:15;11.70;99.90
8792;DHT22;4432;50.890;4.744;2022-09-27T09:09:01;11.70;99.90
8792;DHT22;4432;50.890;4.744;2022-09-27T09:14:36;11.60;99.90
8792;DHT22;4432;50.890;4.744;2022-09-27T09:28:18;11.30;99.90
8792;DHT22;4432;50.890;4.744;2022-09-27T09:31:18;11.40;99.90
8792;DHT22;4432;50.890;4.744;2022-09-27T09:34:04;11.60;99.90
8792;DHT22;4432;50.890;4.744;2022-09-27T09:36:40;11.50;99.90
8792;DHT22;4432;50.890;4.744;2022-09-27T09:39:12;11.40;99.90
8792;DHT22;4432;50.890;4.744;2022-09-27T09:44:40;11.50;99.90
8792;DHT22;4432;50.890;4.744;2022-09-27T09:49:54;11.40;99.90
8792;DHT22;4432;50.890;4.744;2022-09-27T09:52:26;11.30;99.90
8792;DHT22;4432;50.890;4.744;2022-09-27T09:55:03;11.10;99.90
8792;DHT22;4432;50.890;4.744;2022-09-27T09:57:41;11.00;99.90
8792;DHT22;4432;50.890;4.744;2022-09-27T10:00:17;10.80;99.90
8792;DHT22;4432;50.890;4.744;2022-09-27T10:02:45;10.90;99.90
8792;DHT22;4432;50.890;4.744;2022-09-27T10:05:17;10.80;99.90
8792;DHT22;4432;50.890;4.744;2022-09-27T10:07:44;10.90;99.90
8792;DHT22;4432;50.890;4.744;2022-09-27T10:10:14;11.00;99.90
8792;DHT22;4432;50.890;4.744;2022-09-27T10:12:42;11.10;99.90
8792;DHT22;4432;50.890;4.744;2022-09-27T10:15:23;11.10;99.90
8792;DHT22;4432;50.890;4.744;2022-09-27T10:17:55;11.30;99.90
8792;DHT22;4432;50.890;4.744;2022-09-27T10:20:46;11.60;99.90
8792;DHT22;4432;50.890;4.744;2022-09-27T10:23:19;11.80;99.90
8792;DHT22;4432;50.890;4.744;2022-09-27T10:25:47;12.20;99.90
8792;DHT22;4432;50.890;4.744;2022-09-27T10:28:39;12.40;99.90
8792;DHT22;4432;50.890;4.744;2022-09-27T10:31:13;12.40;99.90
8792;DHT22;4432;50.890;4.744;2022-09-27T10:33:59;12.40;99.90
8792;DHT22;4432;50.890;4.744;2022-09-27T10:36:29;12.40;99.90
8792;DHT22;4432;50.890;4.744;2022-09-27T10:38:58;12.50;99.90
8792;DHT22;4432;50.890;4.744;2022-09-27T10:43:57;12.90;99.90
8792;DHT22;4432;50.890;4.744;2022-09-27T10:46:44;12.80;99.90
8792;DHT22;4432;50.890;4.744;2022-09-27T10:49:25;13.10;99.90
8792;DHT22;4432;50.890;4.744;2022-09-27T10:52:04;13.30;99.90
8792;DHT22;4432;50.890;4.744;2022-09-27T10:54:36;13.60;99.90
8792;DHT22;4432;50.890;4.744;2022-09-27T10:57:16;13.50;99.90
8792;DHT22;4432;50.890;4.744;2022-09-27T10:59:58;13.60;99.90
8792;DHT22;4432;50.890;4.744;2022-09-27T11:02:32;13.80;99.90
8792;DHT22;4432;50.890;4.744;2022-09-27T11:07:57;14.20;99.90
8792;DHT22;4432;50.890;4.744;2022-09-27T11:10:24;14.40;99.90
8792;DHT22;4432;50.890;4.744;2022-09-27T11:24:10;14.50;99.90
8792;DHT22;4432;50.890;4.744;2022-09-27T11:33:02;14.80;99.90
8792;DHT22;4432;50.890;4.744;2022-09-27T11:38:36;14.60;99.90
8792;DHT22;4432;50.890;4.744;2022-09-27T11:41:23;14.60;99.90
8792;DHT22;4432;50.890;4.744;2022-09-27T11:46:47;15.30;99.90
8792;DHT22;4432;50.890;4.744;2022-09-27T11:57:29;12.20;99.90
8792;DHT22;4432;50.890;4.744;2022-09-27T12:00:24;11.50;99.90
8792;DHT22;4432;50.890;4.744;2022-09-27T12:11:24;10.60;99.90
8792;DHT22;4432;50.890;4.744;2022-09-27T12:14:01;11.10;99.90
8792;DHT22;4432;50.890;4.744;2022-09-27T12:16:29;11.60;99.90
8792;DHT22;4432;50.890;4.744;2022-09-27T12:18:57;11.90;99.90
8792;DHT22;4432;50.890;4.744;2022-09-27T12:21:24;12.40;99.90
8792;DHT22;4432;50.890;4.744;2022-09-27T12:23:55;12.70;99.90
8792;DHT22;4432;50.890;4.744;2022-09-27T12:26:38;13.20;99.90
8792;DHT22;4432;50.890;4.744;2022-09-27T12:29:16;13.70;99.90
8792;DHT22;4432;50.890;4.744;2022-09-27T12:31:58;14.10;99.90
8792;DHT22;4432;50.890;4.744;2022-09-27T12:34:39;13.90;99.90
8792;DHT22;4432;50.890;4.744;2022-09-27T12:42:49;14.00;99.90
8792;DHT22;4432;50.890;4.744;2022-09-27T12:45:30;13.90;99.90
8792;DHT22;4432;50.890;4.744;2022-09-27T12:56:50;15.00;99.90
8792;DHT22;4432;50.890;4.744;2022-09-27T13:13:33;14.50;99.90
8792;DHT22;4432;50.890;4.744;2022-09-27T13:16:01;14.50;99.90
8792;DHT22;4432;50.890;4.744;2022-09-27T13:20:53;14.30;99.90
8792;DHT22;4432;50.890;4.744;2022-09-27T13:25:48;14.10;99.90
8792;DHT22;4432;50.890;4.744;2022-09-27T13:31:14;13.90;99.90
8792;DHT22;4432;50.890;4.744;2022-09-27T13:46:56;12.00;99.90
8792;DHT22;4432;50.890;4.744;2022-09-27T13:49:35;12.20;99.90
8792;DHT22;4432;50.890;4.744;2022-09-27T13:52:34;12.20;99.90
8792;DHT22;4432;50.890;4.744;2022-09-27T13:55:02;12.40;99.90
8792;DHT22;4432;50.890;4.744;2022-09-27T13:57:57;12.70;99.90
8792;DHT22;4432;50.890;4.744;2022-09-27T14:00:36;12.90;99.90
8792;DHT22;4432;50.890;4.744;2022-09-27T14:03:15;13.20;99.90
8792;DHT22;4432;50.890;4.744;2022-09-27T14:05:48;13.40;99.90
8792;DHT22;4432;50.890;4.744;2022-09-27T14:08:45;13.50;99.90
8792;DHT22;4432;50.890;4.744;2022-09-27T14:11:16;13.60;99.90
8792;DHT22;4432;50.890;4.744;2022-09-27T14:13:45;13.80;99.90
8792;DHT22;4432;50.890;4.744;2022-09-27T14:16:15;13.80;99.90
8792;DHT22;4432;50.890;4.744;2022-09-27T14:18:54;13.90;99.90
8792;DHT22;4432;50.890;4.744;2022-09-27T14:24:13;14.20;99.90
8792;DHT22;4432;50.890;4.744;2022-09-27T14:26:39;14.20;99.90
8792;DHT22;4432;50.890;4.744;2022-09-27T14:29:17;14.10;99.90
8792;DHT22;4432;50.890;4.744;2022-09-27T14:31:43;14.20;99.90
8792;DHT22;4432;50.890;4.744;2022-09-27T14:34:10;14.00;99.90
8792;DHT22;4432;50.890;4.744;2022-09-27T14:36:37;14.20;99.90
8792;DHT22;4432;50.890;4.744;2022-09-27T14:39:24;14.10;99.90
8792;DHT22;4432;50.890;4.744;2022-09-27T14:41:54;13.90;99.90
8792;DHT22;4432;50.890;4.744;2022-09-27T14:44:20;14.00;99.90
8792;DHT22;4432;50.890;4.744;2022-09-27T14:46:46;14.10;99.90
8792;DHT22;4432;50.890;4.744;2022-09-27T14:49:23;14.10;99.90
8792;DHT22;4432;50.890;4.744;2022-09-27T14:51:55;14.20;99.90
8792;DHT22;4432;50.890;4.744;2022-09-27T14:54:23;14.20;99.90
8792;DHT22;4432;50.890;4.744;2022-09-27T14:56:54;14.10;99.90
8792;DHT22;4432;50.890;4.744;2022-09-27T14:59:25;14.20;99.90
8792;DHT22;4432;50.890;4.744;2022-09-27T15:01:57;14.40;99.90
8792;DHT22;4432;50.890;4.744;2022-09-27T15:04:26;14.30;99.90
8792;DHT22;4432;50.890;4.744;2022-09-27T15:06:54;14.20;99.90
8792;DHT22;4432;50.890;4.744;2022-09-27T15:09:21;14.00;99.90
8792;DHT22;4432;50.890;4.744;2022-09-27T15:11:56;13.80;99.90
8792;DHT22;4432;50.890;4.744;2022-09-27T15:14:25;13.50;99.90
8792;DHT22;4432;50.890;4.744;2022-09-27T15:16:54;13.50;99.90
8792;DHT22;4432;50.890;4.744;2022-09-27T15:19:24;13.30;99.90
8792;DHT22;4432;50.890;4.744;2022-09-27T15:21:51;13.20;99.90
8792;DHT22;4432;50.890;4.744;2022-09-27T15:24:42;13.00;99.90
8792;DHT22;4432;50.890;4.744;2022-09-27T15:27:14;12.90;99.90
8792;DHT22;4432;50.890;4.744;2022-09-27T15:29:53;12.60;99.90
8792;DHT22;4432;50.890;4.744;2022-09-27T15:32:22;12.20;99.90
8792;DHT22;4432;50.890;4.744;2022-09-27T15:34:49;11.80;99.90
8792;DHT22;4432;50.890;4.744;2022-09-27T15:37:34;11.50;99.90
8792;DHT22;4432;50.890;4.744;2022-09-27T15:43:03;11.30;99.90
8792;DHT22;4432;50.890;4.744;2022-09-27T15:45:34;11.30;99.90
8792;DHT22;4432;50.890;4.744;2022-09-27T15:48:15;11.30;99.90
8792;DHT22;4432;50.890;4.744;2022-09-27T15:50:41;11.40;99.90
8792;DHT22;4432;50.890;4.744;2022-09-27T15:53:08;11.50;99.90
8792;DHT22;4432;50.890;4.744;2022-09-27T15:55:39;11.60;99.90
8792;DHT22;4432;50.890;4.744;2022-09-27T16:00:59;12.00;99.90
8792;DHT22;4432;50.890;4.744;2022-09-27T16:03:30;12.20;99.90
8792;DHT22;4432;50.890;4.744;2022-09-27T16:05:58;12.30;99.90
8792;DHT22;4432;50.890;4.744;2022-09-27T16:08:24;12.30;99.90
8792;DHT22;4432;50.890;4.744;2022-09-27T16:10:59;12.20;99.90
8792;DHT22;4432;50.890;4.744;2022-09-27T16:13:27;12.10;99.90
8792;DHT22;4432;50.890;4.744;2022-09-27T16:15:53;11.90;99.90
8792;DHT22;4432;50.890;4.744;2022-09-27T16:18:19;11.80;99.90
8792;DHT22;4432;50.890;4.744;2022-09-27T16:20:45;11.70;99.90
8792;DHT22;4432;50.890;4.744;2022-09-27T16:23:10;11.70;99.90
8792;DHT22;4432;50.890;4.744;2022-09-27T16:25:36;11.60;99.90
8792;DHT22;4432;50.890;4.744;2022-09-27T16:28:03;11.70;99.90
8792;DHT22;4432;50.890;4.744;2022-09-27T16:30:30;11.70;99.90
8792;DHT22;4432;50.890;4.744;2022-09-27T16:32:57;11.80;99.90
8792;DHT22;4432;50.890;4.744;2022-09-27T16:35:25;11.80;99.90
8792;DHT22;4432;50.890;4.744;2022-09-27T16:37:51;11.80;99.90
8792;DHT22;4432;50.890;4.744;2022-09-27T16:40:17;11.80;99.90
8792;DHT22;4432;50.890;4.744;2022-09-27T16:42:44;11.80;99.90
8792;DHT22;4432;50.890;4.744;2022-09-27T16:45:12;11.80;99.90
8792;DHT22;4432;50.890;4.744;2022-09-27T16:47:41;11.80;99.90
8792;DHT22;4432;50.890;4.744;2022-09-27T16:50:09;11.80;99.90
8792;DHT22;4432;50.890;4.744;2022-09-27T16:52:55;11.70;99.90
8792;DHT22;4432;50.890;4.744;2022-09-27T16:55:21;11.60;99.90
8792;DHT22;4432;50.890;4.744;2022-09-27T16:57:47;11.60;99.90
8792;DHT22;4432;50.890;4.744;2022-09-27T17:00:14;11.60;99.90
8792;DHT22;4432;50.890;4.744;2022-09-27T17:02:39;11.50;99.90
8792;DHT22;4432;50.890;4.744;2022-09-27T17:05:06;11.50;99.90
8792;DHT22;4432;50.890;4.744;2022-09-27T17:07:32;11.40;99.90
8792;DHT22;4432;50.890;4.744;2022-09-27T17:09:57;11.30;99.90
8792;DHT22;4432;50.890;4.744;2022-09-27T17:12:23;11.30;99.90
8792;DHT22;4432;50.890;4.744;2022-09-27T17:14:49;11.20;99.90
8792;DHT22;4432;50.890;4.744;2022-09-27T17:17:15;11.10;99.90
8792;DHT22;4432;50.890;4.744;2022-09-27T17:19:41;11.10;99.90
8792;DHT22;4432;50.890;4.744;2022-09-27T17:22:08;11.00;99.90
8792;DHT22;4432;50.890;4.744;2022-09-27T17:24:34;11.00;99.90
8792;DHT22;4432;50.890;4.744;2022-09-27T17:27:00;11.00;99.90
8792;DHT22;4432;50.890;4.744;2022-09-27T17:29:26;11.00;99.90
8792;DHT22;4432;50.890;4.744;2022-09-27T17:31:52;11.00;99.90
8792;DHT22;4432;50.890;4.744;2022-09-27T17:34:18;11.00;99.90
8792;DHT22;4432;50.890;4.744;2022-09-27T17:36:44;11.00;99.90
8792;DHT22;4432;50.890;4.744;2022-09-27T17:39:18;11.00;99.90
8792;DHT22;4432;50.890;4.744;2022-09-27T17:41:47;11.10;99.90
8792;DHT22;4432;50.890;4.744;2022-09-27T17:44:15;11.10;99.90
8792;DHT22;4432;50.890;4.744;2022-09-27T17:46:43;11.10;99.90
8792;DHT22;4432;50.890;4.744;2022-09-27T17:49:11;11.10;99.90
8792;DHT22;4432;50.890;4.744;2022-09-27T17:51:55;11.10;99.90
8792;DHT22;4432;50.890;4.744;2022-09-27T17:54:22;11.20;99.90
8792;DHT22;4432;50.890;4.744;2022-09-27T17:56:49;11.30;99.90
8792;DHT22;4432;50.890;4.744;2022-09-27T17:59:16;11.30;99.90
8792;DHT22;4432;50.890;4.744;2022-09-27T18:01:43;11.20;99.90
8792;DHT22;4432;50.890;4.744;2022-09-27T18:04:12;11.10;99.90
8792;DHT22;4432;50.890;4.744;2022-09-27T18:06:40;11.00;99.90
8792;DHT22;4432;50.890;4.744;2022-09-27T18:09:08;10.90;99.90
8792;DHT22;4432;50.890;4.744;2022-09-27T18:11:35;10.60;99.90
8792;DHT22;4432;50.890;4.744;2022-09-27T18:14:01;10.40;99.90
8792;DHT22;4432;50.890;4.744;2022-09-27T18:16:29;10.10;99.90
8792;DHT22;4432;50.890;4.744;2022-09-27T18:18:58;9.90;99.90
8792;DHT22;4432;50.890;4.744;2022-09-27T18:21:25;9.80;99.90
8792;DHT22;4432;50.890;4.744;2022-09-27T18:23:55;9.80;99.90
8792;DHT22;4432;50.890;4.744;2022-09-27T18:26:23;9.60;99.90
8792;DHT22;4432;50.890;4.744;2022-09-27T18:28:50;9.60;99.90
8792;DHT22;4432;50.890;4.744;2022-09-27T18:31:18;9.60;99.90
8792;DHT22;4432;50.890;4.744;2022-09-27T18:33:44;9.50;99.90
8792;DHT22;4432;50.890;4.744;2022-09-27T18:36:24;9.60;99.90
8792;DHT22;4432;50.890;4.744;2022-09-27T18:38:53;9.50;99.90
8792;DHT22;4432;50.890;4.744;2022-09-27T18:41:20;9.50;99.90
8792;DHT22;4432;50.890;4.744;2022-09-27T18:43:47;9.50;99.90
8792;DHT22;4432;50.890;4.744;2022-09-27T18:46:17;9.50;99.90
8792;DHT22;4432;50.890;4.744;2022-09-27T18:48:44;9.50;99.90
8792;DHT22;4432;50.890;4.744;2022-09-27T18:51:15;9.50;99.90
8792;DHT22;4432;50.890;4.744;2022-09-27T18:53:41;9.50;99.90
8792;DHT22;4432;50.890;4.744;2022-09-27T18:56:10;9.50;99.90
8792;DHT22;4432;50.890;4.744;2022-09-27T18:58:37;9.50;99.90
8792;DHT22;4432;50.890;4.744;2022-09-27T19:01:04;9.50;99.90
8792;DHT22;4432;50.890;4.744;2022-09-27T19:03:31;9.50;99.90
8792;DHT22;4432;50.890;4.744;2022-09-27T19:06:05;9.50;99.90
8792;DHT22;4432;50.890;4.744;2022-09-27T19:08:31;9.60;99.90